Crew | Aerofun Virtual



 METAR AND TAF INFORMATION
METAR FOR EYVI
ADDS - METARS form results

(0455 UTC 20 May 2019)
Data provider http://aviationweather.gov/metar/data/
 
METAR text: EYVI 200450Z 14008KT CAVOK 18/08 Q1014 NOSIG
Conditions at: EYVI (VILNIUS INTL , LT) observed 0450 UTC 20 May 2019
Temperature: 18.0°C (64°F)
Dewpoint: 8.0°C (46°F) [RH = 52%]
Pressure (altimeter): 29.94 inches Hg (1014.0 mb)
Winds: from the SE (140 degrees) at 9 MPH (8 knots; 4.1 m/s)
Visibility: 6 or more miles (10+ km)
Ceiling: ceiling and visibility are OK
Clouds: unknown
Weather: no significant weather observed at this time

METAR text: EYVI 200420Z 13008KT CAVOK 18/08 Q1013 NOSIG
Conditions at: EYVI (VILNIUS INTL , LT) observed 0420 UTC 20 May 2019
Temperature: 18.0°C (64°F)
Dewpoint: 8.0°C (46°F) [RH = 52%]
Pressure (altimeter): 29.91 inches Hg (1013.0 mb)
Winds: from the SE (130 degrees) at 9 MPH (8 knots; 4.1 m/s)
Visibility: 6 or more miles (10+ km)
Ceiling: ceiling and visibility are OK
Clouds: unknown
Weather: no significant weather observed at this time

Forecast for: EYVI (VILNIUS INTL , LT)
Text: TAF EYVI 192300Z 2000/2024 12008KT 9000 SCT040
Forecast period: 0000 UTC 20 May 2019 to 0000 UTC 21 May 2019
Forecast type: FROM: standard forecast or significant change
Winds: from the ESE (120 degrees) at 9 MPH (8 knots; 4.1 m/s)
Visibility: 6 miles (9 km)
Ceiling: at least 12,000 feet AGL
Clouds: scattered clouds at 4000 feet AGL
Weather: no significant weather forecast for this period
Text: TEMPO 2000/2006 -SHRA BKN030CB
Forecast period: 0000 to 0600 UTC 20 May 2019
Forecast type: TEMPORARY: The following changes expected for less than half the time period
Visibility: missing
Ceiling: 3000 feet AGL
Clouds: broken clouds at 3000 feet AGL
Weather: -SHRA  (light rain showers)
Text: PROB40
Forecast period: 0000 to 0600 UTC 20 May 2019
Forecast type: TEMPORARY: The following changes expected for less than half the time period
Visibility: missing
Ceiling: unknown
Clouds: missing
Weather: TS  (thunderstorm)
Text: TEMPO 2000/2006 TS
Forecast period: 1100 to 1600 UTC 20 May 2019
Forecast type: TEMPORARY: The following changes expected for less than half the time period
Winds: variable direction winds at 34 MPH (30 knots; 15.4 m/s)
Visibility: 1.86 miles (2.99 km)
Ceiling: 3000 feet AGL
Clouds: broken clouds at 3000 feet AGL
Weather: TSRA  (rain associated with thunderstorm(s))

 AIRPORT MAP

 RUNWAY INFORMATION
Runway 02 Runway length 8251 ft Runway width 164 ft
Runway elevation 594 ft Runway displaced threshold 0 ft Runway heading 22
Runway 20 Runway length 8251 ft Runway width 164 ft
Runway elevation 646 ft Runway displaced threshold 0 ft Runway heading 202

 AIRPORT FREQUENCIES
Type APP Name APP Frequency 120.7 MHZ
Type ATIS Name ATIS Frequency 125.8 MHZ
Type TWR Name TWR Frequency 118.2 MHZ

 AIRPORT NEAR NAVIGATION AIDS
Type NDB Name Vilnius Frequency 385 KHZ
Type VOR-DME Name Vilnius Frequency 113800 KHZ